Time;durP1;ratioP1;P1;durP2;ratioP2;P2;SDS_P1;SDS_P2;PMS_P1;PMS_P2;Temp;Humidity;BMP_temperature;BMP_pressure;BME280_temperature;BME280_humidity;BME280_pressure;Samples;Min_cycle;Max_cycle;Signal;HPM_P1;HPM_P2
2022/01/26 00:08:26;;;;;;;17.80;4.40;;;;;;;2.20;92.90;100731.25;104747;1274;73157;-76
2022/01/26 00:11:24;;;;;;;13.00;4.30;;;;;;;2.18;93.02;100728.35;104850;1273;66743;-76
2022/01/26 00:14:24;;;;;;;11.50;4.40;;;;;;;2.19;93.28;100728.85;105215;1273;71816;-76
2022/01/26 00:17:52;;;;;;;;;;;;;;;;;;;;;
2022/01/26 00:21:27;;;;;;;14.10;4.30;;;;;;;2.20;93.32;100726.38;105052;1273;59676;-77
2022/01/26 00:40:28;;;;;;;15.60;5.20;;;;;;;2.22;93.57;100709.16;104905;1273;72182;-77
2022/01/26 00:43:37;;;;;;;14.60;5.40;;;;;;;2.20;93.44;100705.38;105380;1273;66772;-77
2022/01/26 00:46:48;;;;;;;17.80;6.00;;;;;;;2.16;93.53;100704.79;104972;1273;70728;-76
2022/01/26 00:50:12;;;;;;;13.80;5.10;;;;;;;2.16;93.47;100706.56;105059;1274;59768;-76
2022/01/26 00:54:11;;;;;;;15.90;5.30;;;;;;;2.15;93.89;100703.79;105368;1274;59712;-76
2022/01/26 00:57:36;;;;;;;14.90;5.20;;;;;;;2.18;93.93;100702.80;104603;1279;72311;-76
2022/01/26 01:01:04;;;;;;;14.20;4.70;;;;;;;2.21;93.79;100702.52;104907;1281;66719;-77
2022/01/26 01:04:31;;;;;;;15.30;4.90;;;;;;;2.20;93.26;100700.96;105056;1281;71569;-77
2022/01/26 01:07:26;;;;;;;15.70;4.10;;;;;;;2.16;93.38;100699.88;105126;1279;59753;-76
2022/01/26 01:10:29;;;;;;;14.80;5.00;;;;;;;2.12;93.36;100698.27;104941;1281;60449;-76
2022/01/26 01:13:23;;;;;;;16.50;4.10;;;;;;;2.09;93.67;100699.41;104995;1280;71203;-76
2022/01/26 01:16:18;;;;;;;17.40;5.40;;;;;;;2.09;93.83;100694.00;104696;1280;65980;-76
2022/01/26 01:19:34;;;;;;;14.90;5.40;;;;;;;2.09;94.02;100692.08;105007;1281;72933;-76
2022/01/26 01:22:45;;;;;;;17.70;5.70;;;;;;;2.08;94.33;100689.11;104934;1281;59770;-76
2022/01/26 01:31:49;;;;;;;12.30;4.20;;;;;;;2.10;94.56;100681.18;104822;1280;68162;-76
2022/01/26 01:34:38;;;;;;;14.70;4.90;;;;;;;2.10;94.50;100676.11;104961;1274;73073;-75
2022/01/26 01:37:29;;;;;;;17.70;5.20;;;;;;;2.09;94.56;100676.31;105108;1274;59714;-75
2022/01/26 01:40:18;;;;;;;14.30;4.50;;;;;;;2.09;94.52;100672.27;105479;1274;59723;-76
2022/01/26 01:43:10;;;;;;;11.70;4.10;;;;;;;2.07;94.20;100672.35;105044;1274;73613;-76
2022/01/26 01:46:03;;;;;;;12.50;3.80;;;;;;;2.04;94.28;100670.69;105210;1273;66801;-76
2022/01/26 01:48:51;;;;;;;17.00;5.00;;;;;;;2.02;94.40;100669.69;105184;1274;71694;-75
2022/01/26 01:51:54;;;;;;;13.30;4.10;;;;;;;2.04;94.65;100668.23;104824;1273;59657;-76
2022/01/26 01:54:50;;;;;;;14.50;3.70;;;;;;;2.06;94.33;100672.73;105376;1274;59673;-75
2022/01/26 01:57:38;;;;;;;13.10;4.00;;;;;;;2.08;94.47;100665.48;105203;1273;73784;-76
2022/01/26 02:00:28;;;;;;;11.40;3.70;;;;;;;2.08;94.13;100660.77;105471;1273;66022;-77
2022/01/26 02:03:17;;;;;;;11.70;3.60;;;;;;;2.06;93.90;100653.11;104987;1273;73290;-77
2022/01/26 02:06:18;;;;;;;10.90;3.80;;;;;;;2.09;93.74;100657.06;105000;1274;61224;-77
2022/01/26 02:09:09;;;;;;;11.00;3.50;;;;;;;2.01;93.12;100649.07;105243;1274;60374;-76
2022/01/26 02:12:24;;;;;;;8.70;3.10;;;;;;;1.95;92.98;100645.61;105021;1273;73164;-76
2022/01/26 02:15:29;;;;;;;10.60;2.90;;;;;;;1.87;92.33;100643.77;105176;1274;68115;-77
2022/01/26 02:18:33;;;;;;;10.00;2.40;;;;;;;1.81;92.31;100648.49;104882;1274;72901;-78
2022/01/26 02:56:03;;;;;;;13.00;4.10;;;;;;;1.43;94.03;100619.27;105027;1274;59673;-73
2022/01/26 02:59:47;;;;;;;10.60;3.90;;;;;;;1.44;94.19;100619.76;105345;1274;72574;-73
2022/01/26 03:02:11;;;;;;;12.60;3.60;;;;;;;1.45;94.18;100619.20;105179;1274;68369;-73
2022/01/26 03:05:02;;;;;;;10.30;2.90;;;;;;;1.44;94.04;100614.68;105065;1274;73135;-73
2022/01/26 03:07:58;;;;;;;10.20;3.70;;;;;;;1.42;94.06;100611.79;105320;1274;59771;-73
2022/01/26 03:10:52;;;;;;;15.20;3.10;;;;;;;1.36;93.90;100606.86;105205;1274;60667;-75
2022/01/26 03:13:53;;;;;;;11.60;3.50;;;;;;;1.33;94.14;100608.71;104708;1273;72284;-74
2022/01/26 03:16:52;;;;;;;10.50;3.20;;;;;;;1.32;94.09;100603.14;105339;1274;67183;-75
2022/01/26 03:19:49;;;;;;;14.40;3.70;;;;;;;1.30;94.37;100599.88;105091;1274;73556;-76
2022/01/26 03:32:27;;;;;;;11.70;3.20;;;;;;;1.26;94.68;100587.77;104937;1274;68115;-75
2022/01/26 03:35:13;;;;;;;13.90;3.30;;;;;;;1.24;95.01;100586.27;104874;1276;71948;-75
2022/01/26 03:38:03;;;;;;;9.20;3.00;;;;;;;1.23;95.11;100587.52;104616;1279;59585;-75
2022/01/26 03:44:08;;;;;;;11.00;3.10;;;;;;;1.25;95.38;100590.81;104776;1279;72148;-75
2022/01/26 03:46:57;;;;;;;15.50;3.10;;;;;;;1.27;95.33;100588.45;104576;1279;68553;-75
2022/01/26 03:49:57;;;;;;;12.60;3.10;;;;;;;1.30;95.22;100585.02;104648;1277;71234;-76
2022/01/26 03:52:52;;;;;;;13.40;3.30;;;;;;;1.34;95.17;100580.70;104472;1277;60555;-76
2022/01/26 03:55:52;;;;;;;10.60;2.50;;;;;;;1.37;94.93;100580.80;104588;1277;59747;-76
2022/01/26 03:58:58;;;;;;;8.90;2.80;;;;;;;1.36;94.67;100575.57;104654;1279;73320;-76
2022/01/26 04:01:49;;;;;;;8.80;2.70;;;;;;;1.34;94.29;100578.44;104447;1278;68392;-76
2022/01/26 04:04:48;;;;;;;11.10;2.40;;;;;;;1.30;94.28;100579.08;104701;1278;72780;-76
2022/01/26 04:07:36;;;;;;;10.30;2.70;;;;;;;1.30;94.31;100576.11;104780;1273;59761;-76
2022/01/26 04:13:23;;;;;;;13.50;2.80;;;;;;;1.35;94.47;100578.41;104830;1274;73372;-76
2022/01/26 04:16:30;;;;;;;11.70;2.90;;;;;;;1.37;94.39;100575.38;105136;1274;68657;-76
2022/01/26 04:19:37;;;;;;;9.80;3.50;;;;;;;1.38;94.22;100572.39;105489;1274;72938;-76
2022/01/26 04:22:37;;;;;;;7.90;2.40;;;;;;;1.36;94.01;100566.14;105126;1274;59638;-75
2022/01/26 04:25:32;;;;;;;11.80;2.80;;;;;;;1.33;93.57;100563.96;104919;1273;60449;-75
2022/01/26 04:28:52;;;;;;;10.30;3.10;;;;;;;1.25;93.15;100555.12;104917;1274;72804;-75
2022/01/26 04:31:45;;;;;;;14.20;3.20;;;;;;;1.18;93.55;100554.65;105419;1273;66631;-75
2022/01/26 04:34:35;;;;;;;12.40;2.90;;;;;;;1.14;93.87;100551.61;105333;1274;71593;-75
2022/01/26 04:40:20;;;;;;;9.20;2.70;;;;;;;1.06;94.39;100544.17;104971;1274;59552;-76
2022/01/26 04:43:15;;;;;;;11.40;3.00;;;;;;;1.01;94.78;100538.02;105347;1274;72069;-76
2022/01/26 04:46:12;;;;;;;8.80;2.60;;;;;;;0.95;94.94;100538.55;105083;1273;68216;-76
2022/01/26 04:49:13;;;;;;;10.80;2.50;;;;;;;0.93;95.31;100537.93;105019;1274;71615;-76
2022/01/26 04:52:04;;;;;;;12.50;2.80;;;;;;;0.90;95.69;100537.83;105051;1274;59576;-77
2022/01/26 04:54:55;;;;;;;11.30;2.70;;;;;;;0.89;95.72;100534.36;104893;1274;60289;-76
2022/01/26 04:57:47;;;;;;;16.30;2.90;;;;;;;0.91;95.93;100538.33;105325;1274;71988;-77
2022/01/26 05:00:50;;;;;;;11.70;3.00;;;;;;;0.95;95.98;100533.33;105295;1274;65979;-77
2022/01/26 05:03:39;;;;;;;11.20;3.60;;;;;;;1.01;96.04;100530.86;105686;1273;73202;-74
2022/01/26 05:06:27;;;;;;;12.40;2.80;;;;;;;1.09;96.14;100524.66;104965;1274;59726;-75
2022/01/26 05:09:15;;;;;;;12.40;3.20;;;;;;;1.17;95.98;100520.03;105234;1274;60449;-75
2022/01/26 05:12:03;;;;;;;14.40;3.60;;;;;;;1.23;95.62;100515.66;105124;1274;71995;-76
2022/01/26 05:14:51;;;;;;;13.30;3.30;;;;;;;1.28;95.64;100511.48;104211;1274;1003550;-75
2022/01/26 05:17:44;;;;;;;13.80;3.90;;;;;;;1.33;95.55;100508.55;105039;1273;72662;-74
2022/01/26 05:20:34;;;;;;;12.30;3.00;;;;;;;1.36;95.75;100508.97;105258;1273;59783;-74
2022/01/26 05:23:22;;;;;;;11.90;3.00;;;;;;;1.38;95.86;100508.20;104997;1274;59545;-74
2022/01/26 05:26:11;;;;;;;14.10;3.40;;;;;;;1.41;95.98;100498.84;105231;1273;73670;-75
2022/01/26 05:29:01;;;;;;;17.30;3.70;;;;;;;1.41;96.47;100494.45;105023;1274;68241;-75
2022/01/26 05:31:50;;;;;;;12.30;4.20;;;;;;;1.42;96.95;100486.23;104999;1274;72861;-76
2022/01/26 05:34:39;;;;;;;14.10;4.10;;;;;;;1.43;97.50;100487.91;105541;1273;59777;-75
2022/01/26 05:37:39;;;;;;;12.50;4.60;;;;;;;1.45;97.76;100480.00;104446;1273;1003655;-75
2022/01/26 05:40:30;;;;;;;16.10;4.90;;;;;;;1.46;97.73;100482.59;104930;1274;73924;-75
2022/01/26 05:43:27;;;;;;;14.30;4.40;;;;;;;1.47;98.29;100484.27;104831;1273;65500;-75
2022/01/26 05:46:29;;;;;;;16.90;4.70;;;;;;;1.49;98.31;100483.54;105132;1274;71705;-75
2022/01/26 05:49:18;;;;;;;13.80;4.00;;;;;;;1.48;98.23;100476.38;104860;1274;59794;-76
2022/01/26 05:52:18;;;;;;;13.70;3.90;;;;;;;1.46;98.64;100473.15;105092;1274;59662;-74
2022/01/26 05:55:12;;;;;;;13.90;3.80;;;;;;;1.44;98.32;100480.37;105191;1274;71913;-74
2022/01/26 05:58:03;;;;;;;9.90;4.00;;;;;;;1.45;98.60;100480.31;105146;1274;68141;-75
2022/01/26 06:00:53;;;;;;;12.80;4.20;;;;;;;1.44;98.44;100486.14;104798;1274;73089;-76
2022/01/26 06:03:42;;;;;;;15.70;4.80;;;;;;;1.43;98.59;100483.55;105102;1274;59712;-74
2022/01/26 06:06:32;;;;;;;13.20;4.00;;;;;;;1.42;98.51;100486.56;105123;1274;59608;-74
2022/01/26 06:09:21;;;;;;;12.90;4.10;;;;;;;1.42;98.64;100482.89;104979;1274;72145;-72
2022/01/26 06:12:12;;;;;;;13.30;5.10;;;;;;;1.46;98.73;100488.37;105321;1273;66025;-76
2022/01/26 06:15:05;;;;;;;14.20;5.10;;;;;;;1.47;98.57;100485.02;105738;1273;72681;-76
2022/01/26 06:17:59;;;;;;;12.10;5.40;;;;;;;1.49;98.55;100481.27;105090;1275;59597;-77
2022/01/26 06:20:55;;;;;;;11.70;4.80;;;;;;;1.49;98.50;100485.98;104923;1273;59666;-75
2022/01/26 06:24:11;;;;;;;10.70;4.20;;;;;;;1.50;98.67;100472.29;105234;1274;72063;-76
2022/01/26 06:27:05;;;;;;;13.40;5.20;;;;;;;1.50;98.48;100472.83;105598;1273;66392;-76
2022/01/26 06:29:55;;;;;;;14.00;5.20;;;;;;;1.53;98.52;100468.73;105264;1273;71457;-75
2022/01/26 06:32:50;;;;;;;13.00;4.90;;;;;;;1.55;98.55;100470.40;105489;1274;59694;-76
2022/01/26 06:35:44;;;;;;;11.50;4.10;;;;;;;1.54;98.40;100466.03;105303;1273;59805;-75
2022/01/26 06:38:38;;;;;;;13.20;4.20;;;;;;;1.51;98.25;100466.15;105190;1272;71356;-75
2022/01/26 06:41:30;;;;;;;11.80;4.40;;;;;;;1.50;98.35;100461.64;105268;1274;68449;-74
2022/01/26 06:44:31;;;;;;;12.00;4.20;;;;;;;1.49;98.46;100459.41;105242;1273;72991;-75
2022/01/26 06:50:45;;;;;;;13.50;4.30;;;;;;;1.37;99.05;100445.98;105574;1274;59889;-75
2022/01/26 06:53:36;;;;;;;12.20;4.50;;;;;;;1.35;99.43;100443.75;105313;1274;72554;-75
2022/01/26 06:56:24;;;;;;;10.60;5.20;;;;;;;1.36;99.63;100442.34;104815;1274;67969;-75
2022/01/26 06:59:16;;;;;;;11.30;4.30;;;;;;;1.39;99.79;100444.67;104978;1274;73631;-76
2022/01/26 07:02:04;;;;;;;10.00;4.30;;;;;;;1.40;99.74;100445.37;104919;1273;59691;-75
2022/01/26 07:04:54;;;;;;;10.80;4.30;;;;;;;1.42;99.97;100444.61;105130;1274;61123;-73
2022/01/26 07:08:19;;;;;;;8.50;4.10;;;;;;;1.42;100.00;100443.17;105236;1274;72578;-78
2022/01/26 07:11:30;;;;;;;10.00;4.80;;;;;;;1.41;100.00;100439.05;105357;1273;68552;-77
2022/01/26 07:21:35;;;;;;;12.90;6.00;;;;;;;1.34;100.00;100429.98;105103;1273;59703;-75
2022/01/26 07:24:35;;;;;;;12.90;5.00;;;;;;;1.32;100.00;100424.27;105240;1274;73354;-76
2022/01/26 07:27:26;;;;;;;14.70;6.00;;;;;;;1.27;100.00;100418.67;105204;1274;66883;-77
2022/01/26 07:30:18;;;;;;;16.70;6.90;;;;;;;1.27;100.00;100413.97;105174;1274;71820;-74
2022/01/26 07:33:06;;;;;;;14.60;6.40;;;;;;;1.29;100.00;100414.78;105216;1275;59654;-72
2022/01/26 07:35:55;;;;;;;12.20;5.70;;;;;;;1.32;100.00;100417.82;105019;1273;60862;-73
2022/01/26 07:38:43;;;;;;;14.60;7.00;;;;;;;1.35;100.00;100419.29;105132;1273;73467;-73
2022/01/26 07:41:30;;;;;;;20.60;9.90;;;;;;;1.42;100.00;100419.45;105160;1274;67923;-73
2022/01/26 07:44:20;;;;;;;16.20;7.90;;;;;;;1.60;100.00;100422.65;106209;1273;72979;-74
2022/01/26 07:47:11;;;;;;;18.80;8.70;;;;;;;1.67;100.00;100420.83;105245;1274;59579;-74
2022/01/26 07:50:08;;;;;;;16.30;6.60;;;;;;;1.75;100.00;100416.89;105273;1274;60693;-75
2022/01/26 07:52:59;;;;;;;13.70;6.00;;;;;;;1.77;100.00;100413.64;104953;1274;73340;-74
2022/01/26 07:55:48;;;;;;;14.20;6.00;;;;;;;1.82;100.00;100410.15;104902;1274;66189;-74
2022/01/26 07:58:37;;;;;;;12.60;5.80;;;;;;;1.86;100.00;100405.99;105093;1274;73194;-74
2022/01/26 08:01:25;;;;;;;10.80;4.50;;;;;;;1.90;100.00;100407.23;105590;1274;59754;-74
2022/01/26 08:04:13;;;;;;;11.70;5.80;;;;;;;1.94;100.00;100403.27;104929;1273;61353;-75
2022/01/26 08:07:02;;;;;;;12.50;5.30;;;;;;;1.98;100.00;100400.45;104959;1274;73303;-75
2022/01/26 08:09:50;;;;;;;10.90;5.00;;;;;;;2.04;100.00;100406.73;104857;1274;68244;-76
2022/01/26 08:12:39;;;;;;;10.70;4.80;;;;;;;2.12;100.00;100409.95;105242;1274;72009;-74
2022/01/26 08:15:42;;;;;;;11.20;4.80;;;;;;;2.17;100.00;100410.09;105081;1274;59812;-74
2022/01/26 08:18:29;;;;;;;11.50;4.80;;;;;;;2.24;100.00;100403.56;104983;1274;60342;-75
2022/01/26 08:21:18;;;;;;;9.70;4.80;;;;;;;2.32;100.00;100400.45;105758;1274;73490;-75
2022/01/26 08:24:13;;;;;;;10.80;3.90;;;;;;;2.39;100.00;100397.21;104927;1274;66906;-74
2022/01/26 08:27:08;;;;;;;8.50;3.40;;;;;;;2.49;100.00;100395.92;105501;1274;72915;-75
2022/01/26 08:30:04;;;;;;;9.60;3.50;;;;;;;2.57;100.00;100392.48;104916;1274;60306;-75
2022/01/26 08:32:53;;;;;;;12.30;3.90;;;;;;;2.65;100.00;100396.00;105132;1274;59658;-75
2022/01/26 08:35:42;;;;;;;9.20;3.70;;;;;;;2.74;100.00;100395.64;105454;1273;73296;-74
2022/01/26 08:38:30;;;;;;;9.60;4.00;;;;;;;2.83;100.00;100392.14;105366;1273;66646;-76
2022/01/26 08:41:17;;;;;;;9.30;3.60;;;;;;;2.93;100.00;100394.71;105518;1273;73118;-76
2022/01/26 08:44:05;;;;;;;8.50;3.50;;;;;;;2.97;100.00;100395.93;104829;1274;59684;-76
2022/01/26 08:46:53;;;;;;;8.40;3.80;;;;;;;2.99;100.00;100396.03;104976;1274;60427;-75
2022/01/26 08:49:40;;;;;;;8.80;3.90;;;;;;;3.02;100.00;100393.30;105321;1273;73319;-76
2022/01/26 08:52:28;;;;;;;10.20;4.30;;;;;;;3.04;100.00;100387.27;105324;1273;67924;-75
2022/01/26 08:55:16;;;;;;;10.40;4.40;;;;;;;3.05;100.00;100386.14;105407;1273;71577;-75
2022/01/26 08:58:05;;;;;;;10.90;4.70;;;;;;;3.11;100.00;100384.90;105391;1273;59774;-75
2022/01/26 09:00:54;;;;;;;12.30;4.50;;;;;;;3.15;100.00;100384.00;104137;1274;1002489;-75
2022/01/26 09:03:43;;;;;;;12.70;4.70;;;;;;;3.19;100.00;100385.93;105407;1274;73159;-75
2022/01/26 09:06:33;;;;;;;12.40;5.00;;;;;;;3.21;100.00;100380.41;105166;1274;66854;-75
2022/01/26 09:09:22;;;;;;;12.10;4.70;;;;;;;3.26;100.00;100381.45;105211;1274;72939;-74
2022/01/26 09:12:18;;;;;;;8.50;3.40;;;;;;;3.31;100.00;100383.49;105150;1273;59622;-75
2022/01/26 09:15:07;;;;;;;9.90;4.30;;;;;;;3.37;100.00;100384.81;105174;1274;59757;-75
2022/01/26 09:17:57;;;;;;;10.40;4.50;;;;;;;3.45;100.00;100378.17;105157;1274;73324;-75
2022/01/26 09:20:45;;;;;;;8.60;3.50;;;;;;;3.53;100.00;100373.61;105420;1272;67214;-75
2022/01/26 09:23:33;;;;;;;9.30;3.30;;;;;;;3.63;100.00;100375.66;104987;1274;72784;-75
2022/01/26 09:26:21;;;;;;;7.30;2.70;;;;;;;3.70;100.00;100370.79;104968;1274;59725;-74
2022/01/26 09:29:09;;;;;;;8.50;3.00;;;;;;;3.75;100.00;100365.81;105313;1274;61196;-76
2022/01/26 09:31:58;;;;;;;10.00;3.30;;;;;;;3.80;100.00;100363.65;105608;1274;70874;-75
2022/01/26 09:34:46;;;;;;;9.10;3.10;;;;;;;3.85;100.00;100361.13;105104;1271;67131;-76
2022/01/26 09:37:34;;;;;;;7.80;2.60;;;;;;;3.92;100.00;100360.14;105426;1271;72781;-76
2022/01/26 09:40:22;;;;;;;8.00;2.80;;;;;;;3.95;100.00;100354.57;105223;1273;59884;-75
2022/01/26 09:43:11;;;;;;;11.50;2.90;;;;;;;4.01;100.00;100354.78;105334;1271;59667;-75
2022/01/26 09:45:58;;;;;;;9.80;2.80;;;;;;;4.07;100.00;100355.59;105380;1274;73641;-75
2022/01/26 09:48:46;;;;;;;8.00;2.60;;;;;;;4.12;100.00;100349.23;105602;1271;68144;-76
2022/01/26 09:51:40;;;;;;;6.70;2.30;;;;;;;4.14;100.00;100343.34;105385;1274;72801;-75
2022/01/26 09:54:30;;;;;;;7.30;2.20;;;;;;;4.15;99.98;100345.55;105364;1273;60231;-75
2022/01/26 09:57:42;;;;;;;6.30;2.40;;;;;;;4.12;99.96;100348.16;103379;1274;1003620;-75
2022/01/26 10:00:30;;;;;;;6.80;2.50;;;;;;;4.12;100.00;100347.13;105375;1274;73234;-75
2022/01/26 10:03:32;;;;;;;7.20;2.20;;;;;;;4.11;100.00;100343.64;105023;1274;68248;-74
2022/01/26 10:06:28;;;;;;;8.90;2.80;;;;;;;4.12;100.00;100331.83;105615;1274;73060;-75
2022/01/26 10:19:06;;;;;;;7.90;2.60;;;;;;;4.18;100.00;100309.61;105385;1274;68068;-74
2022/01/26 10:21:54;;;;;;;6.60;2.30;;;;;;;4.16;100.00;100313.02;104424;1274;1002681;-75
2022/01/26 10:24:48;;;;;;;7.00;2.40;;;;;;;4.17;100.00;100313.02;105316;1274;59678;-75
2022/01/26 10:27:59;;;;;;;7.70;2.50;;;;;;;4.15;100.00;100315.20;105569;1275;61092;-74
2022/01/26 10:30:55;;;;;;;9.70;3.30;;;;;;;4.16;100.00;100316.20;105206;1274;71700;-75
2022/01/26 10:34:01;;;;;;;9.00;2.80;;;;;;;4.15;100.00;100316.43;105304;1273;66938;-75
2022/01/26 10:36:59;;;;;;;9.00;2.80;;;;;;;4.12;100.00;100311.11;105308;1274;72998;-74
2022/01/26 10:39:51;;;;;;;8.90;3.00;;;;;;;4.09;100.00;100312.67;105227;1274;59648;-75
2022/01/26 10:43:11;;;;;;;8.10;2.90;;;;;;;4.07;100.00;100312.75;105421;1273;60410;-75
2022/01/26 10:46:05;;;;;;;7.80;2.40;;;;;;;4.06;100.00;100303.45;105224;1274;72791;-75
2022/01/26 10:52:38;;;;;;;6.00;2.10;;;;;;;4.10;100.00;100303.83;105089;1273;73241;-75
2022/01/26 10:55:30;;;;;;;7.00;2.40;;;;;;;4.09;100.00;100303.17;105418;1274;60032;-75
2022/01/26 10:58:20;;;;;;;6.60;2.20;;;;;;;4.06;99.98;100298.61;105118;1275;59760;-74
2022/01/26 11:01:09;;;;;;;7.20;2.40;;;;;;;4.04;99.96;100297.07;105363;1274;71972;-75
2022/01/26 11:03:57;;;;;;;7.10;2.00;;;;;;;4.00;99.80;100296.05;105107;1275;65785;-75
2022/01/26 11:06:54;;;;;;;7.20;2.30;;;;;;;3.97;99.84;100287.73;105503;1274;72981;-76
2022/01/26 11:09:48;;;;;;;19.30;8.20;;;;;;;3.97;99.97;100285.10;104457;1274;1003274;-75
2022/01/26 11:12:41;;;;;;;9.20;2.30;;;;;;;4.04;100.00;100280.94;105234;1274;59653;-76
2022/01/26 11:15:32;;;;;;;6.30;2.30;;;;;;;4.07;99.87;100284.11;105042;1274;72256;-75
2022/01/26 11:18:27;;;;;;;7.10;2.90;;;;;;;4.09;99.95;100280.84;105113;1274;68398;-75
2022/01/26 11:21:39;;;;;;;8.00;2.60;;;;;;;4.12;99.68;100281.98;104096;1274;1003803;-75
2022/01/26 11:24:42;;;;;;;6.90;2.20;;;;;;;4.11;98.34;100274.81;104772;1274;59695;-75
2022/01/26 11:27:39;;;;;;;7.10;2.40;;;;;;;4.10;98.53;100262.55;105120;1274;59611;-75
2022/01/26 11:30:36;;;;;;;7.20;2.50;;;;;;;4.09;98.24;100262.10;104892;1274;72166;-75
2022/01/26 11:33:29;;;;;;;7.40;2.20;;;;;;;4.11;97.89;100264.45;105419;1274;67214;-75
2022/01/26 11:36:21;;;;;;;8.20;2.10;;;;;;;4.11;97.58;100262.34;103626;1274;1003770;-74
2022/01/26 11:46:37;;;;;;;9.00;2.00;;;;;;;3.95;97.06;100242.73;105389;1274;73426;-75
2022/01/26 11:49:44;;;;;;;6.80;2.00;;;;;;;3.89;97.59;100240.17;105279;1279;67188;-75
2022/01/26 11:52:40;;;;;;;7.40;2.10;;;;;;;3.88;97.66;100236.59;104413;1281;73105;-75
2022/01/26 11:55:49;;;;;;;9.10;2.40;;;;;;;3.86;97.12;100227.86;104503;1281;60100;-76
2022/01/26 11:58:45;;;;;;;7.50;2.20;;;;;;;3.88;97.06;100222.51;104267;1281;1003174;-75
2022/01/26 12:01:41;;;;;;;5.80;1.70;;;;;;;3.81;96.37;100205.45;104358;1281;71724;-75
2022/01/26 12:04:36;;;;;;;7.60;1.80;;;;;;;3.80;96.59;100212.91;104667;1280;67056;-76
2022/01/26 12:07:25;;;;;;;7.30;1.80;;;;;;;3.78;96.53;100201.25;104757;1280;71779;-75
2022/01/26 12:10:25;;;;;;;6.30;1.90;;;;;;;3.78;96.87;100202.47;104698;1279;59675;-75
2022/01/26 12:13:17;;;;;;;7.40;1.90;;;;;;;3.73;96.41;100195.64;104458;1281;59743;-75
2022/01/26 12:16:16;;;;;;;6.50;1.80;;;;;;;3.78;96.63;100194.23;104721;1279;72104;-75
2022/01/26 12:19:26;;;;;;;9.50;2.60;;;;;;;3.82;96.15;100179.63;104454;1281;67858;-74
2022/01/26 12:35:27;;;;;;;7.80;2.10;;;;;;;3.86;96.20;100142.04;105681;1271;68382;-75
2022/01/26 12:38:40;;;;;;;6.90;1.50;;;;;;;3.78;96.54;100141.55;105189;1271;73012;-75
2022/01/26 12:41:45;;;;;;;6.70;2.00;;;;;;;3.66;96.97;100138.60;105483;1271;60068;-73
2022/01/26 12:44:33;;;;;;;6.00;1.70;;;;;;;3.57;97.61;100135.01;105360;1271;60620;-75
2022/01/26 12:47:25;;;;;;;6.10;1.60;;;;;;;3.51;97.78;100126.86;105037;1271;73232;-73
2022/01/26 12:50:15;;;;;;;5.30;1.40;;;;;;;3.48;98.31;100120.35;105526;1274;67992;-74
2022/01/26 12:53:04;;;;;;;5.40;1.50;;;;;;;3.47;98.12;100120.21;105200;1274;72913;-73
2022/01/26 12:56:02;;;;;;;6.40;2.00;;;;;;;3.43;98.41;100122.17;105401;1274;60316;-74
2022/01/26 12:59:05;;;;;;;5.70;1.60;;;;;;;3.38;98.47;100117.29;105352;1274;59599;-74
2022/01/26 13:01:54;;;;;;;6.40;2.20;;;;;;;3.33;98.56;100117.17;105098;1273;73412;-74
2022/01/26 13:04:44;;;;;;;5.40;1.60;;;;;;;3.32;98.83;100106.89;105044;1274;68665;-75
2022/01/26 13:07:32;;;;;;;5.40;1.70;;;;;;;3.28;98.83;100107.41;105158;1274;73127;-75
2022/01/26 13:10:22;;;;;;;7.80;2.20;;;;;;;3.27;98.89;100105.89;104884;1274;59794;-74
2022/01/26 13:13:21;;;;;;;9.30;2.40;;;;;;;3.29;99.09;100092.62;105070;1274;59783;-74
2022/01/26 13:16:24;;;;;;;6.80;2.10;;;;;;;3.32;98.47;100094.07;104992;1273;73543;-74
2022/01/26 13:22:35;;;;;;;8.10;2.40;;;;;;;3.39;98.32;100095.29;104380;1273;1003687;-72
2022/01/26 13:29:12;;;;;;;5.80;1.60;;;;;;;3.29;98.31;100086.00;105080;1274;60336;-74
2022/01/26 13:50:02;;;;;;;8.90;2.30;;;;;;;2.96;97.43;100073.14;105492;1274;67975;-74
2022/01/26 13:53:45;;;;;;;7.40;2.50;;;;;;;2.92;97.21;100057.16;105345;1274;72951;-74
2022/01/26 13:56:40;;;;;;;6.10;2.20;;;;;;;2.91;97.29;100066.67;105330;1274;59711;-74
2022/01/26 13:59:38;;;;;;;8.00;2.50;;;;;;;2.95;97.61;100068.45;105206;1274;60690;-75
2022/01/26 14:02:32;;;;;;;8.00;2.30;;;;;;;2.92;97.16;100063.13;105247;1274;74064;-75
2022/01/26 14:05:19;;;;;;;7.10;2.00;;;;;;;2.93;97.72;100067.85;104975;1273;67892;-75
2022/01/26 14:08:10;;;;;;;7.30;2.30;;;;;;;2.89;98.09;100057.13;105146;1274;70712;-75
2022/01/26 14:10:58;;;;;;;8.90;2.30;;;;;;;2.88;98.37;100051.75;104939;1274;59579;-74
2022/01/26 14:13:46;;;;;;;8.80;2.60;;;;;;;2.86;98.48;100043.09;105314;1274;60903;-74
2022/01/26 14:16:43;;;;;;;8.60;3.30;;;;;;;2.81;98.58;100044.70;105067;1273;73203;-74
2022/01/26 14:26:01;;;;;;;8.20;2.80;;;;;;;2.75;98.56;100049.02;105413;1273;59697;-74
2022/01/26 14:29:14;;;;;;;7.20;2.20;;;;;;;2.74;98.16;100051.86;105416;1271;59670;-74
2022/01/26 14:32:34;;;;;;;8.70;2.80;;;;;;;2.71;98.23;100054.79;105237;1274;72115;-74
2022/01/26 14:36:17;;;;;;;7.40;2.50;;;;;;;2.69;98.43;100050.52;105194;1274;70571;-75
2022/01/26 15:12:08;;;;;;;7.70;2.50;;;;;;;2.29;100.00;100018.30;104837;1277;66776;-75
2022/01/26 15:22:25;;;;;;;7.30;2.00;;;;;;;2.20;100.00;100020.13;104609;1276;60741;-74
2022/01/26 15:34:34;;;;;;;6.60;2.30;;;;;;;2.21;100.00;100015.15;105229;1273;59665;-75
2022/01/26 15:50:50;;;;;;;6.60;2.10;;;;;;;2.09;100.00;99985.91;105247;1273;59806;-75
2022/01/26 16:12:54;;;;;;;8.80;2.70;;;;;;;1.95;100.00;99970.60;105695;1273;72379;-68
2022/01/26 17:46:43;;;;;;;12.70;4.50;;;;;;;2.09;100.00;99914.36;105210;1273;60177;-73
2022/01/26 18:07:07;;;;;;;14.00;5.20;;;;;;;2.12;100.00;99900.55;105122;1273;60470;-74
2022/01/26 18:32:57;;;;;;;12.80;4.40;;;;;;;2.09;100.00;99879.16;104862;1274;59636;-74
2022/01/26 18:51:58;;;;;;;10.00;3.40;;;;;;;2.10;100.00;99887.13;104962;1273;60670;-73
2022/01/26 18:54:46;;;;;;;10.40;3.90;;;;;;;2.10;100.00;99875.96;104902;1274;70672;-73
2022/01/26 18:57:34;;;;;;;9.80;3.50;;;;;;;2.05;100.00;99879.16;105063;1274;68203;-74
2022/01/26 19:00:32;;;;;;;8.50;3.00;;;;;;;2.02;100.00;99875.77;104928;1273;72906;-73
2022/01/26 19:03:19;;;;;;;7.10;2.20;;;;;;;2.01;100.00;99873.90;104918;1273;59839;-74
2022/01/26 19:06:11;;;;;;;8.20;2.80;;;;;;;1.97;100.00;99878.64;104943;1273;60680;-72
2022/01/26 19:09:08;;;;;;;7.60;2.80;;;;;;;1.94;100.00;99881.56;104935;1274;73542;-72
2022/01/26 19:12:05;;;;;;;9.90;3.20;;;;;;;1.93;100.00;99880.21;105006;1274;67950;-73
2022/01/26 19:15:17;;;;;;;9.00;3.30;;;;;;;1.93;100.00;99880.41;105141;1273;73023;-73
2022/01/26 19:18:23;;;;;;;10.40;3.30;;;;;;;1.92;100.00;99873.10;105344;1272;259212;-73
2022/01/26 19:40:59;;;;;;;15.40;5.20;;;;;;;2.14;100.00;99850.73;105328;1273;59608;-74
2022/01/26 19:52:10;;;;;;;18.60;6.00;;;;;;;2.41;100.00;99844.95;104821;1277;74202;-73
2022/01/26 19:56:17;;;;;;;;;;;;;;;;;;;;;
2022/01/26 20:00:00;;;;;;;22.10;7.10;;;;;;;2.54;100.00;99838.21;105208;1284;60594;-73
2022/01/26 20:02:49;;;;;;;20.20;6.10;;;;;;;2.59;100.00;99845.14;104224;1284;73340;-73
2022/01/26 20:06:07;;;;;;;15.00;5.70;;;;;;;2.64;100.00;99848.39;102517;1285;1003154;-71
2022/01/26 20:09:05;;;;;;;18.50;6.20;;;;;;;2.66;100.00;99851.98;104336;1284;72360;-72
2022/01/26 20:12:00;;;;;;;19.00;6.80;;;;;;;2.68;100.00;99847.87;103904;1284;60075;-72
2022/01/26 20:15:25;;;;;;;17.20;4.90;;;;;;;2.70;100.00;99853.00;104427;1281;60631;-72
2022/01/26 20:18:20;;;;;;;17.50;5.10;;;;;;;2.71;100.00;99849.61;104356;1284;72233;-73
2022/01/26 20:21:19;;;;;;;17.40;5.30;;;;;;;2.73;100.00;99844.45;104052;1284;68972;-71
2022/01/26 20:24:38;;;;;;;20.80;6.90;;;;;;;2.72;100.00;99843.08;103116;1285;1003860;-72
2022/01/26 20:27:31;;;;;;;19.70;6.70;;;;;;;2.75;100.00;99847.69;104298;1284;59787;-72
2022/01/26 20:30:26;;;;;;;23.00;7.00;;;;;;;2.76;100.00;99842.44;104008;1282;59678;-72